South Yarmouth, MA (02664)

1:28 AM EDT on October 26, 2014 (GMT -0400)
WA1FSC - Yarmouth Port | Change Station
CLOSE
Current Station
Personal Weather Station
Location: Yarmouth, MA
Elevation: 33 ft
Nearby Weather Stations

Elev 33 ft 41.71 °N, 70.23 °W | Updated 12 minutes ago

Mostly Cloudy
Mostly Cloudy
59.0 °F
Feels Like 59.0 °F
N
5.8
Wind Variable Wind from WSW

Today
High -- | Low -- °F
--% Chance of Precip.
Yesterday
High -- | Low -- °F
Precip. -- in
7:05 AM 5:43 PM
Waxing Crescent, 6% visible
Pressure 29.49 in
Visibility 10.0 miles
Clouds Scattered Clouds 7500 ft
Mostly Cloudy 10000 ft
Dew Point 54 °F
Humidity 83%
Rainfall 0.00 in
Snow Depth Not available.
UV 0 out of 12
Pollen 1.10 out of 12
Air Quality Not available.
Flu Activity Sporadic
METAR KHYA 260456Z 23013KT 10SM SCT075 BKN100 16/12 A2949 RMK AO2 SLP987 T01610117 401780072

More Conditions Fewer Conditions

Pressure 29.49 in
Visibility 10.0 miles
Clouds Scattered Clouds 7500 ft
Mostly Cloudy 10000 ft
Dew Point 54 °F
Humidity 83%
Rainfall 0.00 in
Snow Depth Not available.
UV 0 out of 12
Pollen 1.10 out of 12
Air Quality Not available.
Flu Activity Sporadic
METAR KHYA 260456Z 23013KT 10SM SCT075 BKN100 16/12 A2949 RMK AO2 SLP987 T01610117 401780072

More Conditions Fewer Conditions

10-Day Weather Forecast

Almanac

Astronomy

Oct. 26, 2014 Rise Set
Actual Time 7:05 AM EDT 5:43 PM EDT
Civil Twilight 6:37 AM EDT 6:11 PM EDT
Nautical Twilight 6:04 AM EDT 6:44 PM EDT
Astronomical Twilight 5:32 AM EDT 7:16 PM EDT
Moon 9:41 AM EDT 7:50 PM EDT
Length of Visible Light 11h 34m
Length of Day
10h 37m
Tomorrow will be 2m 33s shorter.
Waxing Crescent, 6% of the Moon is Illuminated
Today
Waxing Crescent
Oct 30
First Quarter
Nov 6
Full
Nov 14
Last Quarter
Nov 22
New

Today's Extremes

State Highs State Lows

Community

WunderPhotos

Upload Photos

1,765,112 photos uploaded!

Nearby

Air Quality

  Air Quality AQ Index Pollutant
Yesterday Good
OZONE
Sunday Good
PM2.5
Sunday Good
OZONE

Snow Depth

Station Depth Elevation
No new snow has been reported.

Earthquake Activity

City Distance Mag. Time & Date
No recent earthquake activity has been reported nearby.
Minimum magnitude displayed is 2.5.

Coastal Water Temperatures

Place Temperature
Nantucket Island, MA 57.9 °F
Woods Hole, MA 60.1 °F
Fall River, MA 60.1 °F
Boston, MA 55.0 °F

Nearby Weather Stations